Time;durP1;ratioP1;P1;durP2;ratioP2;P2;SDS_P1;SDS_P2;PMS_P1;PMS_P2;Temp;Humidity;BMP_temperature;BMP_pressure;BME280_temperature;BME280_humidity;BME280_pressure;Samples;Min_cycle;Max_cycle;Signal;HPM_P1;HPM_P2
2022/03/23 00:01:34;;;;;;;;;;;5.10;99.90;;;3.86;58.14;96743.50;10522342;28;1878;-71
2022/03/23 00:06:38;;;;;;;;;;;5.10;99.90;;;3.79;58.18;96738.19;10521722;28;1989;-68
2022/03/23 00:11:41;;;;;;;;;;;4.90;99.90;;;3.65;59.29;96742.72;10523811;28;1926;-70
2022/03/23 00:16:44;;;;;;;;;;;4.90;99.90;;;3.61;59.28;96743.31;10558937;28;1914;-70
2022/03/23 00:21:47;;;;;;;;;;;4.80;99.90;;;3.59;60.05;96743.53;10528567;28;1956;-71
2022/03/23 00:26:51;;;;;;;;;;;4.80;99.90;;;3.57;60.32;96740.28;10513202;28;1775;-70
2022/03/23 00:31:54;;;;;;;;;;;4.70;99.90;;;3.51;60.91;96739.25;10518453;28;1838;-71
2022/03/23 00:37:00;;;;;;;;;;;4.60;99.90;;;3.56;60.84;96737.78;10524579;28;1991;-70
2022/03/23 00:42:03;;;;;;;;;;;4.70;99.90;;;3.41;61.62;96735.34;10527994;28;1827;-70
2022/03/23 00:47:05;;;;;;;;;;;4.70;99.90;;;3.38;61.59;96730.47;10523148;28;1906;-69
2022/03/23 00:52:08;;;;;;;;;;;4.50;99.90;;;3.29;61.75;96740.47;10520732;28;1810;-71
2022/03/23 00:57:11;;;;;;;;;;;4.50;99.90;;;3.15;61.24;96738.81;10518865;28;1914;-71
2022/03/23 01:02:15;;;;;;;;;;;4.30;99.90;;;3.17;60.80;96748.22;10519280;28;1831;-70
2022/03/23 01:07:18;;;;;;;;;;;4.30;99.90;;;3.21;59.83;96730.84;10519009;28;2255;-71
2022/03/23 01:12:22;;;;;;;;;;;4.30;99.90;;;3.14;60.88;96738.00;10517679;28;1831;-71
2022/03/23 01:17:25;;;;;;;;;;;4.30;99.90;;;3.00;62.03;96733.72;10528597;28;1910;-70
2022/03/23 01:22:29;;;;;;;;;;;4.20;99.90;;;2.92;62.67;96740.00;10525762;28;1838;-70
2022/03/23 01:27:31;;;;;;;;;;;4.10;99.90;;;2.75;63.43;96741.41;10526455;28;1973;-70
2022/03/23 01:32:34;;;;;;;;;;;4.00;99.90;;;2.62;62.66;96741.38;10516447;28;2321;-70
2022/03/23 01:37:38;;;;;;;;;;;;;;;2.71;61.95;96741.00;10545246;28;1990;-70
2022/03/23 01:42:41;;;;;;;;;;;;;;;2.63;62.94;96727.91;10523335;28;1960;-70
2022/03/23 01:47:45;;;;;;;;;;;;;;;2.57;63.53;96736.66;10527260;28;1943;-72
2022/03/23 01:52:48;;;;;;;;;;;3.60;99.90;;;2.59;64.19;96726.66;10523177;28;1989;-69
2022/03/23 01:57:52;;;;;;;;;;;3.70;99.90;;;2.55;64.68;96732.59;10529218;28;1984;-70
2022/03/23 02:02:58;;;;;;;;;;;3.70;99.90;;;2.49;64.59;96728.88;10528992;28;1915;-70
2022/03/23 02:08:02;;;;;;;;;;;3.70;99.90;;;2.41;65.26;96729.03;10527969;28;1876;-72
2022/03/23 02:13:06;;;;;;;;;;;3.60;99.90;;;2.39;65.77;96726.59;10530757;28;1960;-70
2022/03/23 02:18:10;;;;;;;;;;;3.50;99.90;;;2.38;66.92;96724.97;10525312;28;1981;-71
2022/03/23 02:23:13;;;;;;;;;;;3.40;99.90;;;2.26;67.20;96726.53;10527625;28;2369;-72
2022/03/23 02:28:16;;;;;;;;;;;3.40;99.90;;;2.23;67.99;96710.19;10524688;28;1879;-70
2022/03/23 02:33:20;;;;;;;;;;;3.50;99.90;;;2.20;68.09;96719.38;10525321;28;2233;-70
2022/03/23 02:38:23;;;;;;;;;;;3.30;99.90;;;2.24;68.73;96730.44;10531542;28;2020;-71
2022/03/23 02:43:28;;;;;;;;;;;3.30;99.90;;;2.31;69.04;96718.00;10522880;28;1895;-69
2022/03/23 02:48:31;;;;;;;;;;;3.30;99.90;;;2.27;69.04;96724.72;10545879;28;2420;-70
2022/03/23 03:04:23;;;;;;;;;;;3.30;99.90;;;2.13;71.85;96726.50;10525657;28;1915;-69
2022/03/23 03:09:26;;;;;;;;;;;3.30;99.90;;;2.13;71.66;96724.66;10523465;28;2107;-69
2022/03/23 03:14:29;;;;;;;;;;;3.30;99.90;;;2.12;73.95;96725.69;10527753;28;2032;-71
2022/03/23 03:19:33;;;;;;;;;;;;;;;1.98;73.54;96728.47;10525333;28;1973;-70
2022/03/23 03:24:37;;;;;;;;;;;3.00;99.90;;;1.96;72.98;96726.00;10524582;28;1815;-70
2022/03/23 03:29:41;;;;;;;;;;;3.00;99.90;;;2.06;72.38;96731.75;10527799;28;1968;-69
2022/03/23 03:34:44;;;;;;;;;;;3.00;99.90;;;2.01;72.93;96728.88;10543493;28;2063;-70
2022/03/23 03:39:48;;;;;;;;;;;;;;;1.97;72.94;96738.22;10529446;28;2056;-70
2022/03/23 03:44:51;;;;;;;;;;;3.00;99.90;;;1.85;73.71;96745.94;10522084;28;1819;-70
2022/03/23 03:49:54;;;;;;;;;;;;;;;1.79;73.69;96741.41;10522444;28;1969;-69
2022/03/23 03:54:58;;;;;;;;;;;;;;;1.75;73.58;96742.00;10523643;28;2363;-70
2022/03/23 04:00:02;;;;;;;;;;;;;;;1.79;74.09;96745.91;10518923;28;1950;-69
2022/03/23 04:05:06;;;;;;;;;;;;;;;1.78;74.57;96738.94;10523474;28;1836;-69
2022/03/23 04:10:09;;;;;;;;;;;;;;;1.79;75.38;96744.06;10531753;28;1981;-70
2022/03/23 04:15:14;;;;;;;;;;;;;;;1.79;74.99;96741.41;10526601;28;1906;-69
2022/03/23 04:20:19;;;;;;;;;;;;;;;1.70;75.28;96742.56;10522715;28;1953;-69
2022/03/23 04:25:22;;;;;;;;;;;;;;;1.71;75.47;96748.69;10523409;28;1875;-70
2022/03/23 04:30:26;;;;;;;;;;;;;;;1.71;75.69;96749.50;10520474;28;2040;-71
2022/03/23 04:35:30;;;;;;;;;;;;;;;1.69;75.45;96756.84;10523224;28;1973;-70
2022/03/23 04:40:33;;;;;;;;;;;;;;;1.73;75.47;96746.66;10544591;28;1553;-71
2022/03/23 04:45:37;;;;;;;;;;;;;;;1.72;75.44;96752.97;10549899;28;1866;-71
2022/03/23 04:50:40;;;;;;;;;;;;;;;1.62;75.89;96769.22;10518987;28;1992;-69
2022/03/23 04:55:44;;;;;;;;;;;;;;;1.57;75.75;96777.75;10531709;28;1987;-71
2022/03/23 05:00:47;;;;;;;;;;;;;;;1.57;75.95;96780.38;10525008;28;1903;-69
2022/03/23 05:05:52;;;;;;;;;;;;;;;1.53;76.06;96779.16;10520142;28;1984;-69
2022/03/23 05:10:55;;;;;;;;;;;;;;;1.48;76.09;96781.56;10516407;28;1968;-69
2022/03/23 05:15:59;;;;;;;;;;;;;;;1.49;75.99;96783.19;10524092;28;1988;-71
2022/03/23 05:21:03;;;;;;;;;;;;;;;1.46;76.42;96788.84;10522855;28;1767;-71
2022/03/23 05:26:06;;;;;;;;;;;;;;;1.51;76.24;96793.59;10528937;28;1842;-70
2022/03/23 05:31:12;;;;;;;;;;;;;;;1.65;75.68;96791.84;10522161;28;1790;-71
2022/03/23 05:36:16;;;;;;;;;;;;;;;1.87;74.83;96796.13;10528980;28;1910;-71
2022/03/23 05:41:19;;;;;;;;;;;;;;;2.06;74.23;96790.13;10524455;28;1898;-71
2022/03/23 05:46:23;;;;;;;;;;;;;;;2.27;73.85;96796.34;10535233;28;1823;-70
2022/03/23 05:51:26;;;;;;;;;;;;;;;2.55;72.70;96793.63;10524585;28;2161;-71
2022/03/23 05:56:30;;;;;;;;;;;;;;;2.82;71.09;96791.88;10525689;28;1910;-71
2022/03/23 06:01:35;;;;;;;;;;;;;;;3.05;70.04;96789.69;10524445;28;1710;-70
2022/03/23 06:06:38;;;;;;;;;;;;;;;3.30;69.31;96797.09;10529314;28;1787;-70
2022/03/23 06:11:43;;;;;;;;;;;;;;;3.55;67.38;96795.47;10528923;28;1867;-71
2022/03/23 06:16:47;;;;;;;;;;;;;;;3.82;65.61;96798.97;10522757;28;1915;-70
2022/03/23 06:21:51;;;;;;;;;;;;;;;4.12;64.10;96796.66;10526630;28;1886;-70
2022/03/23 06:26:55;;;;;;;;;;;;;;;4.41;61.79;96805.19;10527750;28;1913;-70
2022/03/23 06:31:58;;;;;;;;;;;;;;;4.69;61.22;96808.34;10535782;28;1707;-70
2022/03/23 06:37:02;;;;;;;;;;;;;;;4.94;60.17;96811.13;10558998;28;1953;-71
2022/03/23 06:42:05;;;;;;;;;;;;;;;5.23;57.91;96820.41;10557172;28;1688;-71
2022/03/23 06:47:09;;;;;;;;;;;;;;;5.58;58.20;96814.63;10518898;28;1802;-71
2022/03/23 06:52:12;;;;;;;;;;;;;;;5.88;55.59;96823.63;10517230;28;1808;-69
2022/03/23 06:57:16;;;;;;;;;;;;;;;6.13;53.38;96820.19;10516792;28;1914;-70
2022/03/23 07:02:19;;;;;;;;;;;;;;;6.34;52.18;96811.75;10545605;28;2066;-68
2022/03/23 07:07:24;;;;;;;;;;;;;;;6.60;51.72;96812.50;10516569;28;1886;-68
2022/03/23 07:12:27;;;;;;;;;;;;;;;6.73;50.57;96815.00;10520313;28;1842;-68
2022/03/23 07:17:30;;;;;;;;;;;7.20;99.90;;;6.89;50.49;96819.75;10525576;28;1902;-68
2022/03/23 07:22:34;;;;;;;;;;;7.30;99.90;;;7.07;48.88;96820.78;10525390;28;1893;-67
2022/03/23 07:27:37;;;;;;;;;;;7.50;99.90;;;7.37;48.41;96815.41;10520498;28;1890;-67
2022/03/23 07:32:40;;;;;;;;;;;7.70;99.90;;;7.58;47.00;96829.09;10513641;28;1855;-67
2022/03/23 07:37:43;;;;;;;;;;;;;;;7.79;47.28;96824.25;10518638;28;1976;-68
2022/03/23 07:42:47;;;;;;;;;;;;;;;8.00;46.82;96830.91;10519452;28;1933;-67
2022/03/23 07:47:50;;;;;;;;;;;;;;;7.99;45.65;96834.66;10513716;28;1808;-69
2022/03/23 07:52:54;;;;;;;;;;;;;;;8.25;46.34;96836.06;10516513;28;1831;-67
2022/03/23 07:57:57;;;;;;;;;;;8.80;99.90;;;8.41;45.60;96826.56;10521617;28;1981;-68
2022/03/23 08:03:00;;;;;;;;;;;8.90;99.90;;;8.54;44.42;96831.69;10523909;28;1847;-67
2022/03/23 08:08:04;;;;;;;;;;;;;;;8.81;43.87;96838.16;10510150;28;1977;-69
2022/03/23 08:13:09;;;;;;;;;;;;;;;8.82;43.98;96838.97;10513072;28;1981;-68
2022/03/23 08:18:17;;;;;;;;;;;;;;;9.13;43.76;96846.59;10523445;28;1890;-69
2022/03/23 08:23:21;;;;;;;;;;;;;;;9.37;43.14;96843.84;10514495;28;1892;-68
2022/03/23 08:28:25;;;;;;;;;;;;;;;9.78;42.68;96839.19;10513419;28;2069;-67
2022/03/23 08:33:32;;;;;;;;;;;;;;;9.93;41.25;96842.16;10515317;28;1837;-68
2022/03/23 08:38:36;;;;;;;;;;;;;;;9.98;41.01;96852.94;10520061;28;1977;-67
2022/03/23 08:43:41;;;;;;;;;;;;;;;10.01;39.61;96852.50;10511077;28;1852;-69
2022/03/23 08:48:44;;;;;;;;;;;;;;;10.13;38.23;96850.53;10518612;28;1775;-69
2022/03/23 08:53:47;;;;;;;;;;;;;;;10.58;36.88;96851.50;10507466;28;1869;-68
2022/03/23 08:58:51;;;;;;;;;;;;;;;10.38;37.30;96852.84;10513677;28;1980;-69
2022/03/23 09:04:00;;;;;;;;;;;;;;;10.67;36.62;96850.03;10527558;28;1894;-69
2022/03/23 09:09:05;;;;;;;;;;;;;;;10.83;36.79;96843.81;10527803;28;1853;-69
2022/03/23 09:14:08;;;;;;;;;;;;;;;11.36;35.99;96848.47;10507570;28;1999;-69
2022/03/23 09:19:14;;;;;;;;;;;;;;;11.39;36.04;96847.19;10516646;28;1981;-67
2022/03/23 09:24:19;;;;;;;;;;;11.80;99.90;;;11.24;36.49;96839.72;10523785;28;1817;-68
2022/03/23 09:29:22;;;;;;;;;;;11.90;98.00;;;11.68;34.57;96847.75;10518756;28;1779;-68
2022/03/23 09:34:25;;;;;;;;;;;12.10;98.90;;;11.87;34.50;96842.84;10512769;28;1899;-69
2022/03/23 09:39:28;;;;;;;;;;;12.30;99.90;;;12.01;33.92;96833.25;10525332;28;1921;-69
2022/03/23 09:44:32;;;;;;;;;;;;;;;12.27;33.61;96830.75;10522426;28;1873;-68
2022/03/23 09:49:36;;;;;;;;;;;;;;;12.39;33.14;96828.69;10527430;28;1896;-68
2022/03/23 09:54:41;;;;;;;;;;;;;;;12.67;32.60;96824.84;10528051;28;1845;-70
2022/03/23 09:59:44;;;;;;;;;;;13.10;99.90;;;12.68;33.13;96821.06;10524659;28;1976;-70
2022/03/23 10:04:48;;;;;;;;;;;13.30;99.90;;;12.87;32.44;96824.94;10524755;28;1790;-68
2022/03/23 10:09:51;;;;;;;;;;;13.30;99.90;;;13.03;32.68;96811.50;10516114;28;1802;-69
2022/03/23 10:14:54;;;;;;;;;;;13.40;99.90;;;13.03;31.53;96814.22;10519952;28;1799;-69
2022/03/23 10:19:57;;;;;;;;;;;13.40;99.90;;;12.94;31.75;96812.03;10515305;28;1945;-68
2022/03/23 10:25:00;;;;;;;;;;;13.60;99.90;;;12.92;31.92;96805.28;10519446;28;1908;-70
2022/03/23 10:30:03;;;;;;;;;;;13.50;99.90;;;13.21;31.32;96802.97;10512742;28;1884;-69
2022/03/23 10:35:06;;;;;;;;;;;13.70;98.60;;;13.30;30.49;96806.81;10525384;28;1833;-69
2022/03/23 10:40:09;;;;;;;;;;;13.80;99.90;;;13.28;30.11;96803.53;10520431;28;1983;-69
2022/03/23 10:45:11;;;;;;;;;;;13.90;99.90;;;13.35;30.09;96806.81;10525138;28;1965;-70
2022/03/23 10:50:15;;;;;;;;;;;13.90;99.90;;;13.52;29.73;96791.19;10520222;28;1974;-70
2022/03/23 10:55:17;;;;;;;;;;;14.20;99.90;;;13.67;29.11;96789.59;10534511;28;1801;-69
2022/03/23 11:00:20;;;;;;;;;;;14.20;99.90;;;13.48;29.59;96776.59;10522677;28;1910;-70
2022/03/23 11:05:26;;;;;;;;;;;14.20;99.80;;;13.95;28.76;96777.47;10524915;28;2116;-71
2022/03/23 11:15:51;;;;;;;;;;;14.90;70.70;;;14.16;28.84;96767.44;10521416;28;1971;-71
2022/03/23 11:20:54;;;;;;;;;;;15.00;71.20;;;14.28;29.51;96762.56;10526696;28;1790;-69
2022/03/23 11:25:59;;;;;;;;;;;;;;;14.41;29.79;96758.47;10511351;28;1774;-71
2022/03/23 11:31:03;;;;;;;;;;;15.10;78.00;;;14.53;28.24;96753.63;10511533;28;1802;-70
2022/03/23 11:36:07;;;;;;;;;;;;;;;14.57;27.53;96747.38;10514281;28;1910;-70
2022/03/23 11:41:14;;;;;;;;;;;15.30;69.80;;;14.58;27.66;96746.28;10513717;28;1834;-69
2022/03/23 11:46:17;;;;;;;;;;;15.30;69.90;;;14.53;28.37;96743.59;10520137;28;2079;-70
2022/03/23 11:51:20;;;;;;;;;;;15.30;70.10;;;14.53;28.75;96743.59;10521613;28;1821;-71
2022/03/23 11:56:23;;;;;;;;;;;15.30;70.30;;;14.64;27.90;96740.88;10530971;28;1914;-70
2022/03/23 12:01:26;;;;;;;;;;;15.40;70.10;;;14.86;27.31;96725.06;10523242;28;2213;-71
2022/03/23 12:06:29;;;;;;;;;;;15.50;69.90;;;14.72;26.60;96718.66;10523666;28;1969;-70
2022/03/23 12:11:32;;;;;;;;;;;15.60;68.20;;;14.75;26.04;96718.88;10524076;28;2168;-70
2022/03/23 12:16:35;;;;;;;;;;;15.60;67.50;;;14.91;29.78;96713.44;10506870;28;2060;-69
2022/03/23 12:21:39;;;;;;;;;;;15.60;69.90;;;14.92;26.98;96710.44;10517915;28;1914;-68
2022/03/23 12:26:42;;;;;;;;;;;15.70;68.50;;;15.04;26.44;96700.09;10519315;28;1723;-69
2022/03/23 12:31:46;;;;;;;;;;;15.70;67.70;;;15.20;27.17;96689.16;10522422;28;2000;-70
2022/03/23 12:36:59;;;;;;;;;;;15.50;79.10;;;15.38;27.05;96685.78;10524945;28;1909;-69
2022/03/23 12:42:02;;;;;;;;;;;15.80;91.20;;;15.46;26.33;96671.66;10524470;28;1807;-69
2022/03/23 12:47:05;;;;;;;;;;;16.10;67.40;;;15.56;25.96;96673.47;10550880;28;1830;-69
2022/03/23 13:02:50;;;;;;;;;;;16.40;66.20;;;15.56;24.77;96668.03;10490830;22;2394;-71
2022/03/23 13:07:53;;;;;;;;;;;16.20;66.50;;;15.57;23.89;96662.34;10465431;28;1896;-72
2022/03/23 13:12:58;;;;;;;;;;;16.30;64.10;;;15.68;24.23;96666.63;10485410;28;1933;-71
2022/03/23 13:18:01;;;;;;;;;;;16.40;64.30;;;15.75;23.73;96651.91;10477544;28;2409;-70
2022/03/23 13:23:07;;;;;;;;;;;16.50;64.20;;;15.82;23.50;96638.84;10493986;28;1777;-70
2022/03/23 13:28:10;;;;;;;;;;;16.50;63.70;;;15.74;23.39;96642.19;10493354;28;1794;-72
2022/03/23 13:33:14;;;;;;;;;;;16.60;63.70;;;15.75;23.18;96639.19;10482076;28;1785;-70
2022/03/23 13:38:17;;;;;;;;;;;16.60;63.00;;;15.81;22.51;96632.63;10487928;28;1952;-73
2022/03/23 13:43:20;;;;;;;;;;;16.60;61.20;;;15.92;22.66;96627.91;10486569;28;1840;-71
2022/03/23 13:48:25;;;;;;;;;;;16.60;61.60;;;16.09;22.01;96614.69;10487838;28;1875;-71
2022/03/23 13:53:29;;;;;;;;;;;;;;;16.07;22.42;96624.22;10481741;28;1881;-72
2022/03/23 13:58:34;;;;;;;;;;;16.80;61.10;;;16.04;22.61;96617.47;10494127;28;1906;-72
2022/03/23 14:03:38;;;;;;;;;;;16.80;60.90;;;16.04;22.13;96614.78;10481096;28;1799;-73
2022/03/23 14:08:45;;;;;;;;;;;16.80;60.50;;;15.95;22.35;96608.34;10485225;28;1848;-71
2022/03/23 14:13:48;;;;;;;;;;;16.80;60.60;;;15.92;21.77;96606.22;10473093;28;1903;-71
2022/03/23 14:18:52;;;;;;;;;;;16.80;60.10;;;15.97;20.86;96599.91;10478305;28;1981;-71
2022/03/23 14:23:55;;;;;;;;;;;16.80;58.70;;;16.04;21.47;96601.22;10481715;28;1861;-70
2022/03/23 14:28:58;;;;;;;;;;;16.80;58.90;;;15.95;21.25;96590.16;10482857;28;1834;-71
2022/03/23 14:34:01;;;;;;;;;;;16.70;58.60;;;16.03;22.23;96587.91;10482320;28;1861;-71
2022/03/23 14:39:04;;;;;;;;;;;16.70;59.60;;;16.02;23.06;96580.88;10495252;28;1959;-71
2022/03/23 14:44:09;;;;;;;;;;;16.90;60.70;;;15.86;22.10;96580.25;10485088;28;1859;-71
2022/03/23 14:49:12;;;;;;;;;;;16.80;59.60;;;15.81;22.05;96566.75;10498769;28;1804;-72
2022/03/23 14:54:15;;;;;;;;;;;16.70;59.60;;;15.76;22.59;96564.09;10481256;28;1844;-72
2022/03/23 14:59:19;;;;;;;;;;;16.60;60.00;;;15.82;22.63;96568.34;10479690;28;1914;-71
2022/03/23 15:04:22;;;;;;;;;;;16.60;60.10;;;15.86;22.68;96558.56;10483280;28;1881;-73
2022/03/23 15:14:46;;;;;;;;;;;16.70;60.30;;;15.89;23.09;96557.97;10476604;28;1805;-72
2022/03/23 15:19:50;;;;;;;;;;;16.70;60.30;;;15.95;23.29;96549.50;10475544;28;1906;-73
2022/03/23 15:24:53;;;;;;;;;;;16.80;60.60;;;15.87;23.56;96546.63;10489743;28;1840;-72
2022/03/23 15:29:56;;;;;;;;;;;16.80;60.30;;;15.74;23.31;96545.41;10481796;28;1823;-72
2022/03/23 15:34:59;;;;;;;;;;;16.70;60.30;;;15.68;22.80;96541.94;10480207;28;1683;-71
2022/03/23 15:40:06;;;;;;;;;;;16.60;59.80;;;15.59;22.80;96549.06;10492735;28;1910;-73
2022/03/23 15:45:10;;;;;;;;;;;16.60;59.70;;;15.57;22.21;96540.38;10470685;28;1861;-72
2022/03/23 15:50:13;;;;;;;;;;;16.50;58.90;;;15.76;21.88;96543.19;10484775;28;1972;-71
2022/03/23 15:55:17;;;;;;;;;;;16.70;58.60;;;15.71;22.33;96531.59;10484921;28;1821;-71
2022/03/23 16:00:21;;;;;;;;;;;16.60;58.60;;;15.45;22.68;96542.66;10496037;28;1973;-73
2022/03/23 16:05:26;;;;;;;;;;;16.50;59.30;;;15.55;22.53;96539.88;10476995;28;1812;-71
2022/03/23 16:10:29;;;;;;;;;;;16.50;59.10;;;15.47;21.71;96540.50;10471671;28;1855;-69
2022/03/23 16:15:32;;;;;;;;;;;16.40;58.40;;;15.36;22.34;96541.69;10474422;28;1847;-69
2022/03/23 16:20:36;;;;;;;;;;;16.40;58.40;;;15.17;22.62;96538.06;10475659;28;1974;-70
2022/03/23 16:25:39;;;;;;;;;;;16.40;58.60;;;15.18;22.89;96542.38;10478748;28;1847;-70
2022/03/23 16:30:43;;;;;;;;;;;16.20;59.10;;;15.22;23.54;96543.44;10475803;28;1867;-71
2022/03/23 16:35:46;;;;;;;;;;;16.10;59.90;;;15.09;23.89;96548.41;10485003;28;1827;-70
2022/03/23 16:40:49;;;;;;;;;;;16.00;59.90;;;15.08;23.43;96544.09;10471274;28;1930;-69
2022/03/23 16:45:53;;;;;;;;;;;15.90;59.80;;;14.91;23.50;96546.41;10490459;28;1870;-69
2022/03/23 16:50:56;;;;;;;;;;;15.80;59.70;;;14.64;23.99;96554.16;10496941;28;1813;-70
2022/03/23 16:56:03;;;;;;;;;;;15.80;59.70;;;14.65;23.36;96558.47;10493207;28;1822;-71
2022/03/23 17:01:06;;;;;;;;;;;15.70;59.30;;;14.52;23.66;96562.63;10483326;28;1998;-71
2022/03/23 17:16:57;;;;;;;;;;;15.10;59.70;;;13.79;24.75;96565.84;10476751;28;1888;-69
2022/03/23 17:22:01;;;;;;;;;;;14.90;60.00;;;13.69;23.90;96568.59;10478325;28;1984;-69
2022/03/23 17:27:04;;;;;;;;;;;14.80;59.70;;;13.48;24.76;96573.19;10492293;28;1820;-69
2022/03/23 17:32:09;;;;;;;;;;;14.70;60.00;;;13.16;24.70;96568.88;10471114;28;1848;-69
2022/03/23 17:37:13;;;;;;;;;;;14.50;59.80;;;13.08;25.15;96565.91;10493285;28;1922;-70
2022/03/23 17:42:18;;;;;;;;;;;14.20;60.10;;;12.64;25.20;96574.50;10469535;28;1868;-72
2022/03/23 17:47:21;;;;;;;;;;;14.00;60.40;;;12.36;26.80;96575.78;10494801;28;2023;-72
2022/03/23 17:52:24;;;;;;;;;;;13.60;61.00;;;11.98;26.49;96582.38;10498873;28;1890;-71
2022/03/23 17:57:27;;;;;;;;;;;13.40;61.40;;;11.93;26.93;96576.97;10508858;28;1910;-70
2022/03/23 18:02:31;;;;;;;;;;;13.10;61.80;;;11.68;27.88;96580.28;10482565;28;2125;-71
2022/03/23 18:07:34;;;;;;;;;;;12.90;62.40;;;11.73;27.13;96575.75;10493019;28;1797;-70
2022/03/23 18:12:38;;;;;;;;;;;12.70;62.40;;;11.44;27.90;96590.63;10482898;28;1774;-72
2022/03/23 18:17:41;;;;;;;;;;;12.60;62.50;;;11.28;28.18;96582.47;10499403;28;1955;-72
2022/03/23 18:22:49;;;;;;;;;;;12.60;62.80;;;11.11;29.86;96587.16;10501036;28;2032;-71
2022/03/23 18:27:53;;;;;;;;;;;12.40;64.20;;;11.01;29.31;96592.47;10496692;28;1938;-70
2022/03/23 18:32:56;;;;;;;;;;;12.20;63.80;;;10.89;29.38;96599.91;10482785;28;2091;-72
2022/03/23 18:37:59;;;;;;;;;;;12.10;64.30;;;10.74;29.89;96598.66;10496559;28;1976;-72
2022/03/23 18:43:05;;;;;;;;;;;12.00;64.90;;;10.60;29.95;96597.47;10472768;28;1849;-70
2022/03/23 18:48:09;;;;;;;;;;;11.90;65.10;;;10.48;30.61;96594.91;10473282;28;1855;-71
2022/03/23 18:53:12;;;;;;;;;;;11.80;65.30;;;10.39;31.72;96603.69;10473637;28;1543;-71
2022/03/23 18:58:16;;;;;;;;;;;11.60;66.50;;;10.29;32.22;96599.81;10485290;28;1910;-71
2022/03/23 19:03:20;;;;;;;;;;;11.60;66.70;;;10.25;32.33;96604.09;10484642;28;1706;-71
2022/03/23 19:08:26;;;;;;;;;;;11.50;67.30;;;10.17;31.95;96612.53;10499052;28;1483;-73
2022/03/23 19:13:29;;;;;;;;;;;11.40;66.90;;;10.07;32.66;96604.38;10479455;28;1565;-71
2022/03/23 19:18:33;;;;;;;;;;;11.30;67.70;;;10.02;33.13;96606.97;10484983;28;1980;-70
2022/03/23 19:23:37;;;;;;;;;;;11.20;68.20;;;9.99;34.41;96612.88;10485255;28;1535;-71
2022/03/23 19:28:40;;;;;;;;;;;11.20;69.10;;;9.91;33.47;96615.97;10476509;28;1873;-71
2022/03/23 19:33:43;;;;;;;;;;;11.10;69.10;;;9.87;33.43;96614.84;10483680;28;1436;-72
2022/03/23 19:38:46;;;;;;;;;;;11.00;68.60;;;9.61;35.70;96627.91;10493868;28;1914;-71
2022/03/23 19:43:49;;;;;;;;;;;10.90;70.60;;;9.47;37.18;96632.78;10486295;28;1435;-71
2022/03/23 19:48:52;;;;;;;;;;;10.70;71.90;;;9.35;36.28;96621.38;10491743;28;1479;-71
2022/03/23 19:53:55;;;;;;;;;;;10.50;71.40;;;9.28;36.70;96627.94;10475494;28;1534;-71
2022/03/23 19:58:58;;;;;;;;;;;10.40;71.60;;;9.09;36.78;96628.16;10473422;28;2008;-71
2022/03/23 20:04:01;;;;;;;;;;;10.30;72.00;;;9.00;37.37;96632.31;10474050;28;1492;-70
2022/03/23 20:09:04;;;;;;;;;;;10.20;72.70;;;8.88;39.20;96628.88;10482574;28;1412;-71
2022/03/23 20:14:07;;;;;;;;;;;10.10;73.80;;;8.81;38.57;96634.41;10473052;28;1476;-71
2022/03/23 20:19:16;;;;;;;;;;;10.10;73.70;;;8.73;39.61;96625.94;10465708;28;1977;-72
2022/03/23 20:24:18;;;;;;;;;;;9.90;74.20;;;8.64;40.33;96623.63;10483666;28;1563;-71
2022/03/23 20:29:22;;;;;;;;;;;9.90;75.50;;;8.55;40.78;96625.09;10476107;28;1483;-71
2022/03/23 20:34:24;;;;;;;;;;;9.80;75.30;;;8.44;40.29;96623.25;10546228;22;3515;-70
2022/03/23 20:39:27;;;;;;;;;;;9.60;78.30;;;8.28;41.82;96629.34;10550454;28;1978;-69
2022/03/23 20:44:31;;;;;;;;;;;9.50;77.20;;;8.12;41.02;96629.03;10532970;28;1675;-69
2022/03/23 20:49:33;;;;;;;;;;;9.40;76.20;;;8.26;40.15;96629.56;10524928;28;1513;-69
2022/03/23 20:54:37;;;;;;;;;;;9.40;76.00;;;8.12;40.59;96626.34;10527832;28;1953;-70
2022/03/23 20:59:40;;;;;;;;;;;9.40;76.10;;;8.04;40.32;96629.41;10526969;28;1910;-69
2022/03/23 21:04:43;;;;;;;;;;;9.30;75.40;;;7.93;41.01;96629.44;10518513;28;1835;-70
2022/03/23 21:09:47;;;;;;;;;;;9.20;75.80;;;7.78;42.25;96629.94;10551504;28;1892;-69
2022/03/23 21:14:56;;;;;;;;;;;9.20;76.90;;;7.82;42.19;96626.56;10519131;28;1820;-69
2022/03/23 21:19:59;;;;;;;;;;;9.10;76.90;;;7.64;43.64;96628.56;10521655;28;1909;-70
2022/03/23 21:25:03;;;;;;;;;;;8.90;94.00;;;7.50;44.77;96634.13;10520948;28;1939;-69
2022/03/23 21:30:07;;;;;;;;;;;8.70;79.00;;;7.41;45.48;96635.53;10522226;28;1776;-69
2022/03/23 21:35:10;;;;;;;;;;;8.60;79.80;;;7.35;46.22;96631.09;10548098;28;1857;-69
2022/03/23 21:40:13;;;;;;;;;;;8.50;80.50;;;7.25;45.52;96626.34;10536943;28;1973;-70
2022/03/23 21:45:16;;;;;;;;;;;8.40;80.60;;;7.24;45.54;96623.88;10580120;27;1948;-68
2022/03/23 21:50:20;;;;;;;;;;;8.40;80.90;;;7.24;45.66;96623.88;10529622;28;1812;-69
2022/03/23 21:55:23;;;;;;;;;;;8.30;80.90;;;7.17;46.37;96623.97;10548345;28;1814;-70
2022/03/23 22:00:28;;;;;;;;;;;8.30;81.10;;;7.17;45.88;96623.97;10530177;28;1921;-69
2022/03/23 22:05:35;;;;;;;;;;;8.30;82.20;;;7.15;45.97;96626.09;10531135;28;1838;-70
2022/03/23 22:10:38;;;;;;;;;;;8.30;81.90;;;7.08;46.98;96625.38;10560100;27;1860;-69
2022/03/23 22:15:41;;;;;;;;;;;8.30;83.70;;;6.97;48.62;96624.31;10526226;28;1908;-71
2022/03/23 22:20:44;;;;;;;;;;;8.10;86.90;;;6.86;48.60;96617.06;10548953;28;1985;-69
2022/03/23 22:25:48;;;;;;;;;;;8.10;83.50;;;6.84;49.35;96623.69;10568864;28;1858;-70
2022/03/23 22:30:51;;;;;;;;;;;8.00;87.00;;;6.75;49.31;96617.88;10554812;28;2042;-69
2022/03/23 22:35:55;;;;;;;;;;;7.90;85.30;;;6.66;50.66;96620.03;10565205;28;1795;-69
2022/03/23 22:40:58;;;;;;;;;;;;;;;6.59;50.63;96618.53;10536066;28;1918;-69
2022/03/23 22:46:02;;;;;;;;;;;;;;;6.52;50.57;96620.47;10530909;28;1866;-69
2022/03/23 22:51:05;;;;;;;;;;;;;;;6.39;51.68;96611.59;10531047;28;1867;-69
2022/03/23 22:56:09;;;;;;;;;;;;;;;6.25;52.55;96610.16;10530860;28;2047;-69
2022/03/23 23:01:13;;;;;;;;;;;;;;;6.22;53.45;96613.25;10522901;28;1985;-69
2022/03/23 23:06:17;;;;;;;;;;;;;;;6.21;54.06;96608.97;10528747;28;1850;-69
2022/03/23 23:11:21;;;;;;;;;;;;;;;6.09;54.42;96610.75;10526135;28;1831;-69
2022/03/23 23:16:26;;;;;;;;;;;;;;;6.02;54.94;96602.03;10526142;28;1792;-69
2022/03/23 23:21:30;;;;;;;;;;;;;;;5.91;55.76;96604.41;10527733;28;1909;-69
2022/03/23 23:26:33;;;;;;;;;;;7.00;89.90;;;5.85;56.13;96605.28;10527113;28;1971;-68
2022/03/23 23:31:38;;;;;;;;;;;7.40;90.60;;;5.80;56.12;96607.81;10526277;28;1865;-69
2022/03/23 23:36:42;;;;;;;;;;;7.00;90.60;;;5.72;56.66;96605.41;10535202;28;1866;-69
2022/03/23 23:41:46;;;;;;;;;;;6.90;90.40;;;5.63;56.56;96609.41;10553449;27;2084;-69
2022/03/23 23:46:49;;;;;;;;;;;6.90;90.70;;;5.53;56.23;96601.09;10526289;28;1976;-70
2022/03/23 23:51:52;;;;;;;;;;;6.80;90.60;;;5.49;56.93;96602.59;10521312;28;1859;-70
2022/03/23 23:56:55;;;;;;;;;;;6.70;91.10;;;5.53;56.78;96598.44;10525330;28;2000;-69
